createdAt,value
2016-10-09T00:00:19.056Z,971.16
2016-10-09T00:01:19.018Z,971.16
2016-10-09T00:02:18.979Z,971.1
2016-10-09T00:03:18.939Z,971.14
2016-10-09T00:04:18.903Z,971.14
2016-10-09T00:05:18.865Z,971.16
2016-10-09T00:06:18.824Z,971.16
2016-10-09T00:07:18.788Z,971.14
2016-10-09T00:08:18.749Z,971.12
2016-10-09T00:09:18.710Z,971.15
2016-10-09T00:10:18.669Z,971.15
2016-10-09T00:11:18.633Z,971.14
2016-10-09T00:12:18.596Z,971.12
2016-10-09T00:13:18.557Z,971.14
2016-10-09T00:14:18.517Z,971.14
2016-10-09T00:15:18.478Z,971.15
2016-10-09T00:16:18.442Z,971.18
2016-10-09T00:17:18.401Z,971.17
2016-10-09T00:18:18.363Z,971.14
2016-10-09T00:19:18.325Z,971.16
2016-10-09T00:20:18.287Z,971.2
2016-10-09T00:21:18.257Z,971.18
2016-10-09T00:22:18.208Z,971.14
2016-10-09T00:23:18.171Z,971.17
2016-10-09T00:24:18.133Z,971.15
2016-10-09T00:25:18.093Z,971.18
2016-10-09T00:26:18.055Z,971.19
2016-10-09T00:27:18.016Z,971.14
2016-10-09T00:28:17.979Z,971.17
2016-10-09T00:29:17.939Z,971.18
2016-10-09T00:30:17.902Z,971.14
2016-10-09T00:31:17.862Z,971.14
2016-10-09T00:32:17.823Z,971.15
2016-10-09T00:33:17.784Z,971.15
2016-10-09T00:34:17.745Z,971.17
2016-10-09T00:35:17.708Z,971.14
2016-10-09T00:36:17.669Z,971.15
2016-10-09T00:37:17.631Z,971.11
2016-10-09T00:38:17.591Z,971.1
2016-10-09T00:39:17.553Z,971.11
2016-10-09T00:40:17.514Z,971.11
2016-10-09T00:41:17.482Z,971.11
2016-10-09T00:42:17.437Z,971.13
2016-10-09T00:43:17.399Z,971.12
2016-10-09T00:44:17.360Z,971.12
2016-10-09T00:45:17.324Z,971.08
2016-10-09T00:46:17.283Z,971.1
2016-10-09T00:47:17.244Z,971.13
2016-10-09T00:48:17.205Z,971.11
2016-10-09T00:49:17.167Z,971.13
2016-10-09T00:50:17.127Z,971.13
2016-10-09T00:51:17.088Z,971.12
2016-10-09T00:52:17.050Z,971.14
2016-10-09T00:53:17.012Z,971.1
2016-10-09T00:54:16.973Z,971.14
2016-10-09T00:55:16.934Z,971.16
2016-10-09T00:56:16.896Z,971.16
2016-10-09T00:57:16.858Z,971.18
2016-10-09T00:58:16.820Z,971.12
2016-10-09T00:59:16.781Z,971.11
2016-10-09T01:00:16.743Z,971.1
2016-10-09T01:01:16.703Z,971.12
2016-10-09T01:02:16.664Z,971.1
2016-10-09T01:03:16.626Z,971.1
2016-10-09T01:04:16.588Z,971.07
2016-10-09T01:05:16.549Z,971.06
2016-10-09T01:06:16.511Z,971.03
2016-10-09T01:07:16.474Z,971.06
2016-10-09T01:08:16.432Z,971.02
2016-10-09T01:09:16.394Z,971.01
2016-10-09T01:10:16.356Z,970.98
2016-10-09T01:11:16.317Z,970.98
2016-10-09T01:12:16.278Z,971
2016-10-09T01:13:16.239Z,970.97
2016-10-09T01:14:16.200Z,970.93
2016-10-09T01:15:16.163Z,970.95
2016-10-09T01:16:16.124Z,970.98
2016-10-09T01:17:16.084Z,970.95
2016-10-09T01:18:16.046Z,970.92
2016-10-09T01:19:16.007Z,970.9
2016-10-09T01:20:15.969Z,970.89
2016-10-09T01:21:15.931Z,970.87
2016-10-09T01:22:15.892Z,970.85
2016-10-09T01:23:15.852Z,970.87
2016-10-09T01:24:15.815Z,970.86
2016-10-09T01:25:15.778Z,970.86
2016-10-09T01:26:15.737Z,970.85
2016-10-09T01:27:15.697Z,970.8
2016-10-09T01:28:15.658Z,970.81
2016-10-09T01:29:15.620Z,970.75
2016-10-09T01:30:15.581Z,970.75
2016-10-09T01:31:15.543Z,970.72
2016-10-09T01:32:15.503Z,970.7
2016-10-09T01:33:15.465Z,970.71
2016-10-09T01:34:15.425Z,970.68
2016-10-09T01:35:15.388Z,970.66
2016-10-09T01:36:15.348Z,970.66
2016-10-09T01:37:15.310Z,970.68
2016-10-09T01:38:15.271Z,970.7
2016-10-09T01:39:15.232Z,970.71
2016-10-09T01:40:15.195Z,970.7
2016-10-09T01:41:15.154Z,970.74
2016-10-09T01:42:15.116Z,970.7
2016-10-09T01:43:15.078Z,970.72
2016-10-09T01:44:15.039Z,970.71
2016-10-09T01:45:15.000Z,970.7
2016-10-09T01:46:14.961Z,970.74
2016-10-09T01:47:14.925Z,970.73
2016-10-09T01:48:14.884Z,970.73
2016-10-09T01:49:14.851Z,970.74
2016-10-09T01:50:14.807Z,970.7
2016-10-09T01:51:14.768Z,970.7
2016-10-09T01:52:14.729Z,970.69
2016-10-09T01:53:14.691Z,970.65
2016-10-09T01:54:14.652Z,970.67
2016-10-09T01:55:14.615Z,970.65
2016-10-09T01:56:14.574Z,970.63
2016-10-09T01:57:14.535Z,970.64
2016-10-09T01:58:14.496Z,970.64
2016-10-09T01:59:14.458Z,970.64
2016-10-09T02:00:14.419Z,970.65
2016-10-09T02:01:14.381Z,970.64
2016-10-09T02:02:14.345Z,970.63
2016-10-09T02:03:14.304Z,970.65
2016-10-09T02:04:14.266Z,970.62
2016-10-09T02:05:14.227Z,970.59
2016-10-09T02:06:14.187Z,970.57
2016-10-09T02:07:14.147Z,970.59
2016-10-09T02:08:14.109Z,970.63
2016-10-09T02:09:14.070Z,970.58
2016-10-09T02:10:14.032Z,970.62
2016-10-09T02:11:13.991Z,970.6
2016-10-09T02:12:13.953Z,970.59
2016-10-09T02:13:13.915Z,970.6
2016-10-09T02:14:13.876Z,970.6
2016-10-09T02:15:13.836Z,970.6
2016-10-09T02:16:13.798Z,970.56
2016-10-09T02:17:13.761Z,970.5
2016-10-09T02:18:13.719Z,970.52
2016-10-09T02:19:13.681Z,970.5
2016-10-09T02:20:13.642Z,970.55
2016-10-09T02:21:13.605Z,970.61
2016-10-09T02:22:13.564Z,970.57
2016-10-09T02:23:13.526Z,970.6
2016-10-09T02:24:13.487Z,970.56
2016-10-09T02:25:13.447Z,970.56
2016-10-09T02:26:13.408Z,970.56
2016-10-09T02:27:13.370Z,970.59
2016-10-09T02:28:13.331Z,970.57
2016-10-09T02:29:13.292Z,970.57
2016-10-09T02:30:13.253Z,970.63
2016-10-09T02:31:13.215Z,970.58
2016-10-09T02:32:13.176Z,970.57
2016-10-09T02:33:13.138Z,970.58
2016-10-09T02:34:13.100Z,970.57
2016-10-09T02:35:13.060Z,970.56
2016-10-09T02:36:13.021Z,970.56
2016-10-09T02:37:12.983Z,970.55
2016-10-09T02:38:12.943Z,970.54
2016-10-09T02:39:12.905Z,970.55
2016-10-09T02:40:12.866Z,970.58
2016-10-09T02:41:12.827Z,970.59
2016-10-09T02:42:12.791Z,970.58
2016-10-09T02:43:12.749Z,970.61
2016-10-09T02:44:12.711Z,970.63
2016-10-09T02:45:12.671Z,970.55
2016-10-09T02:46:12.632Z,970.58
2016-10-09T02:47:12.592Z,970.58
2016-10-09T02:48:12.555Z,970.55
2016-10-09T02:49:12.515Z,970.53
2016-10-09T02:50:12.477Z,970.57
2016-10-09T02:51:12.437Z,970.51
2016-10-09T02:52:12.399Z,970.54
2016-10-09T02:53:12.361Z,970.53
2016-10-09T02:54:12.320Z,970.53
2016-10-09T02:55:12.282Z,970.53
2016-10-09T02:56:12.244Z,970.54
2016-10-09T02:57:12.207Z,970.52
2016-10-09T02:58:12.165Z,970.55
2016-10-09T02:59:12.127Z,970.5
2016-10-09T03:00:12.089Z,970.52
2016-10-09T03:01:12.049Z,970.5
2016-10-09T03:02:12.011Z,970.52
2016-10-09T03:03:11.972Z,970.52
2016-10-09T03:04:11.934Z,970.53
2016-10-09T03:05:11.893Z,970.54
2016-10-09T03:06:11.854Z,970.54
2016-10-09T03:07:11.815Z,970.56
2016-10-09T03:08:11.778Z,970.52
2016-10-09T03:09:11.735Z,970.55
2016-10-09T03:10:11.698Z,970.56
2016-10-09T03:11:11.660Z,970.56
2016-10-09T03:12:11.622Z,970.52
2016-10-09T03:13:11.582Z,970.56
2016-10-09T03:14:11.543Z,970.56
2016-10-09T03:15:11.504Z,970.54
2016-10-09T03:16:11.464Z,970.53
2016-10-09T03:17:11.425Z,970.59
2016-10-09T03:18:11.389Z,970.52
2016-10-09T03:19:11.349Z,970.59
2016-10-09T03:20:11.309Z,970.6
2016-10-09T03:21:11.270Z,970.59
2016-10-09T03:22:11.230Z,970.57
2016-10-09T03:23:11.192Z,970.58
2016-10-09T03:24:11.153Z,970.58
2016-10-09T03:25:11.116Z,970.59
2016-10-09T03:26:11.076Z,970.58
2016-10-09T03:27:11.035Z,970.57
2016-10-09T03:28:10.996Z,970.61
2016-10-09T03:29:10.962Z,970.58
2016-10-09T03:30:10.919Z,970.58
2016-10-09T03:31:10.881Z,970.56
2016-10-09T03:32:10.841Z,970.57
2016-10-09T03:33:10.802Z,970.6
2016-10-09T03:34:10.763Z,970.61
2016-10-09T03:35:10.724Z,970.53
2016-10-09T03:36:10.686Z,970.55
2016-10-09T03:37:10.647Z,970.52
2016-10-09T03:38:10.607Z,970.5
2016-10-09T03:39:10.568Z,970.55
2016-10-09T03:40:10.530Z,970.49
2016-10-09T03:41:10.491Z,970.45
2016-10-09T03:42:10.451Z,970.48
2016-10-09T03:43:10.412Z,970.47
2016-10-09T03:44:10.374Z,970.46
2016-10-09T03:45:10.335Z,970.44
2016-10-09T03:46:10.296Z,970.46
2016-10-09T03:47:10.258Z,970.46
2016-10-09T03:48:10.219Z,970.48
2016-10-09T03:49:10.178Z,970.46
2016-10-09T03:50:10.139Z,970.47
2016-10-09T03:51:10.104Z,970.53
2016-10-09T03:52:10.062Z,970.51
2016-10-09T03:53:10.023Z,970.53
2016-10-09T03:54:09.983Z,970.47
2016-10-09T03:55:09.945Z,970.48
2016-10-09T03:56:09.907Z,970.52
2016-10-09T03:57:09.868Z,970.51
2016-10-09T03:58:09.829Z,970.47
2016-10-09T03:59:09.790Z,970.43
2016-10-09T04:00:09.751Z,970.42
2016-10-09T04:01:09.712Z,970.42
2016-10-09T04:02:09.672Z,970.44
2016-10-09T04:03:09.635Z,970.44
2016-10-09T04:04:09.596Z,970.47
2016-10-09T04:05:09.556Z,970.44
2016-10-09T04:06:09.518Z,970.47
2016-10-09T04:07:09.480Z,970.45
2016-10-09T04:08:09.441Z,970.43
2016-10-09T04:09:09.403Z,970.44
2016-10-09T04:10:09.364Z,970.43
2016-10-09T04:11:09.323Z,970.41
2016-10-09T04:12:09.286Z,970.46
2016-10-09T04:13:09.248Z,970.4
2016-10-09T04:14:09.210Z,970.4
2016-10-09T04:15:09.169Z,970.4
2016-10-09T04:16:09.131Z,970.41
2016-10-09T04:17:09.094Z,970.39
2016-10-09T04:18:09.052Z,970.42
2016-10-09T04:19:09.014Z,970.4
2016-10-09T04:20:08.974Z,970.4
2016-10-09T04:21:08.937Z,970.37
2016-10-09T04:22:08.897Z,970.41
2016-10-09T04:23:08.859Z,970.41
2016-10-09T04:24:08.819Z,970.38
2016-10-09T04:25:08.781Z,970.4
2016-10-09T04:26:08.742Z,970.39
2016-10-09T04:27:08.702Z,970.41
2016-10-09T04:28:08.664Z,970.38
2016-10-09T04:29:08.627Z,970.37
2016-10-09T04:30:08.586Z,970.38
2016-10-09T04:31:08.548Z,970.36
2016-10-09T04:32:08.511Z,970.36
2016-10-09T04:33:08.469Z,970.34
2016-10-09T04:34:08.431Z,970.35
2016-10-09T04:35:08.394Z,970.3
2016-10-09T04:36:08.354Z,970.35
2016-10-09T04:37:08.312Z,970.32
2016-10-09T04:38:08.275Z,970.34
2016-10-09T04:39:08.236Z,970.31
2016-10-09T04:40:08.197Z,970.35
2016-10-09T04:41:08.165Z,970.3
2016-10-09T04:42:08.120Z,970.31
2016-10-09T04:43:08.082Z,970.34
2016-10-09T04:44:08.042Z,970.29
2016-10-09T04:45:08.006Z,970.32
2016-10-09T04:46:07.965Z,970.3
2016-10-09T04:47:07.927Z,970.31
2016-10-09T04:48:07.889Z,970.31
2016-10-09T04:49:07.848Z,970.3
2016-10-09T04:50:07.809Z,970.33
2016-10-09T04:51:07.772Z,970.32
2016-10-09T04:52:07.731Z,970.31
2016-10-09T04:53:07.693Z,970.36
2016-10-09T04:54:07.655Z,970.31
2016-10-09T04:55:07.617Z,970.36
2016-10-09T04:56:07.575Z,970.37
2016-10-09T04:57:07.537Z,970.35
2016-10-09T04:58:07.498Z,970.37
2016-10-09T04:59:07.458Z,970.35
2016-10-09T05:00:07.420Z,970.31
2016-10-09T05:01:07.389Z,970.36
2016-10-09T05:02:07.341Z,970.36
2016-10-09T05:03:07.303Z,970.35
2016-10-09T05:04:07.263Z,970.37
2016-10-09T05:05:07.228Z,970.37
2016-10-09T05:06:07.185Z,970.33
2016-10-09T05:07:07.148Z,970.35
2016-10-09T05:08:07.110Z,970.35
2016-10-09T05:09:07.071Z,970.37
2016-10-09T05:10:07.033Z,970.35
2016-10-09T05:11:06.993Z,970.36
2016-10-09T05:12:06.954Z,970.38
2016-10-09T05:13:06.915Z,970.41
2016-10-09T05:14:06.875Z,970.39
2016-10-09T05:15:06.837Z,970.36
2016-10-09T05:16:06.798Z,970.39
2016-10-09T05:17:06.759Z,970.37
2016-10-09T05:18:06.721Z,970.38
2016-10-09T05:19:06.681Z,970.43
2016-10-09T05:20:06.643Z,970.4
2016-10-09T05:21:06.604Z,970.44
2016-10-09T05:22:06.564Z,970.42
2016-10-09T05:23:06.528Z,970.45
2016-10-09T05:24:06.487Z,970.4
2016-10-09T05:25:06.448Z,970.44
2016-10-09T05:26:06.409Z,970.38
2016-10-09T05:27:06.371Z,970.42
2016-10-09T05:28:06.332Z,970.42
2016-10-09T05:29:06.292Z,970.42
2016-10-09T05:30:06.254Z,970.42
2016-10-09T05:31:06.216Z,970.44
2016-10-09T05:32:06.182Z,970.41
2016-10-09T05:33:06.137Z,970.42
2016-10-09T05:34:06.099Z,970.41
2016-10-09T05:35:06.060Z,970.43
2016-10-09T05:36:06.020Z,970.38
2016-10-09T05:37:05.981Z,970.4
2016-10-09T05:38:05.944Z,970.39
2016-10-09T05:39:05.904Z,970.43
2016-10-09T05:40:05.866Z,970.43
2016-10-09T05:41:05.827Z,970.42
2016-10-09T05:42:05.788Z,970.47
2016-10-09T05:43:05.750Z,970.46
2016-10-09T05:44:05.712Z,970.48
2016-10-09T05:45:05.672Z,970.48
2016-10-09T05:46:05.633Z,970.49
2016-10-09T05:47:05.595Z,970.52
2016-10-09T05:48:05.556Z,970.48
2016-10-09T05:49:05.518Z,970.51
2016-10-09T05:50:05.478Z,970.49
2016-10-09T05:51:05.441Z,970.43
2016-10-09T05:52:05.403Z,970.47
2016-10-09T05:53:05.362Z,970.46
2016-10-09T05:54:05.323Z,970.48
2016-10-09T05:55:05.285Z,970.46
2016-10-09T05:56:05.246Z,970.49
2016-10-09T05:57:05.207Z,970.45
2016-10-09T05:58:05.168Z,970.45
2016-10-09T05:59:05.130Z,970.45
2016-10-09T06:00:05.092Z,970.51
2016-10-09T06:01:05.051Z,970.48
2016-10-09T06:02:05.014Z,970.46
2016-10-09T06:03:04.975Z,970.48
2016-10-09T06:04:04.936Z,970.42
2016-10-09T06:05:04.897Z,970.48
2016-10-09T06:06:04.860Z,970.45
2016-10-09T06:07:04.821Z,970.46
2016-10-09T06:08:04.782Z,970.5
2016-10-09T06:09:04.743Z,970.54
2016-10-09T06:10:04.705Z,970.51
2016-10-09T06:11:04.668Z,970.51
2016-10-09T06:12:04.629Z,970.5
2016-10-09T06:13:04.589Z,970.51
2016-10-09T06:14:04.552Z,970.56
2016-10-09T06:15:04.512Z,970.54
2016-10-09T06:16:04.473Z,970.56
2016-10-09T06:17:04.435Z,970.5
2016-10-09T06:18:04.399Z,970.5
2016-10-09T06:19:04.359Z,970.51
2016-10-09T06:20:04.320Z,970.54
2016-10-09T06:21:04.285Z,970.61
2016-10-09T06:22:04.244Z,970.58
2016-10-09T06:23:04.206Z,970.56
2016-10-09T06:24:04.168Z,970.59
2016-10-09T06:25:04.133Z,970.59
2016-10-09T06:26:04.091Z,970.59
2016-10-09T06:27:04.055Z,970.61
2016-10-09T06:28:04.016Z,970.65
2016-10-09T06:29:03.980Z,970.66
2016-10-09T06:30:03.939Z,970.62
2016-10-09T06:31:03.903Z,970.67
2016-10-09T06:32:03.864Z,970.64
2016-10-09T06:33:03.828Z,970.7
2016-10-09T06:34:03.789Z,970.68
2016-10-09T06:35:03.754Z,970.66
2016-10-09T06:36:03.713Z,970.66
2016-10-09T06:37:03.675Z,970.67
2016-10-09T06:38:03.637Z,970.65
2016-10-09T06:39:03.599Z,970.67
2016-10-09T06:40:03.562Z,970.69
2016-10-09T06:41:03.524Z,970.67
2016-10-09T06:42:03.487Z,970.69
2016-10-09T06:43:03.449Z,970.66
2016-10-09T06:44:03.411Z,970.65
2016-10-09T06:45:03.374Z,970.65
2016-10-09T06:46:03.335Z,970.69
2016-10-09T06:47:03.298Z,970.67
2016-10-09T06:48:03.263Z,970.69
2016-10-09T06:49:03.222Z,970.69
2016-10-09T06:50:03.188Z,970.65
2016-10-09T06:51:03.147Z,970.68
2016-10-09T06:52:03.108Z,970.7
2016-10-09T06:53:03.072Z,970.7
2016-10-09T06:54:03.034Z,970.69
2016-10-09T06:55:02.999Z,970.69
2016-10-09T06:56:02.960Z,970.68
2016-10-09T06:57:02.922Z,970.7
2016-10-09T06:58:02.886Z,970.73
2016-10-09T06:59:02.847Z,970.69
2016-10-09T07:00:02.809Z,970.67
2016-10-09T07:01:02.772Z,970.71
2016-10-09T07:02:02.735Z,970.67
2016-10-09T07:03:02.723Z,970.72
2016-10-09T07:04:02.659Z,970.69
2016-10-09T07:05:02.622Z,970.69
2016-10-09T07:06:02.583Z,970.69
2016-10-09T07:07:02.546Z,970.68
2016-10-09T07:08:02.514Z,970.66
2016-10-09T07:09:02.472Z,970.7
2016-10-09T07:10:02.434Z,970.62
2016-10-09T07:11:02.395Z,970.63
2016-10-09T07:12:02.358Z,970.66
2016-10-09T07:13:02.321Z,970.7
2016-10-09T07:14:02.283Z,970.68
2016-10-09T07:15:02.247Z,970.66
2016-10-09T07:16:02.212Z,970.66
2016-10-09T07:17:02.171Z,970.69
2016-10-09T07:18:02.136Z,970.66
2016-10-09T07:19:02.100Z,970.65
2016-10-09T07:20:02.059Z,970.66
2016-10-09T07:21:02.021Z,970.68
2016-10-09T07:22:01.986Z,970.67
2016-10-09T07:23:01.947Z,970.7
2016-10-09T07:24:01.910Z,970.72
2016-10-09T07:25:01.872Z,970.68
2016-10-09T07:26:01.835Z,970.68
2016-10-09T07:27:01.798Z,970.69
2016-10-09T07:28:01.760Z,970.66
2016-10-09T07:29:01.729Z,970.71
2016-10-09T07:30:01.686Z,970.66
2016-10-09T07:31:01.652Z,970.67
2016-10-09T07:32:01.611Z,970.69
2016-10-09T07:33:01.577Z,970.69
2016-10-09T07:34:01.538Z,970.68
2016-10-09T07:35:01.501Z,970.61
2016-10-09T07:36:01.464Z,970.68
2016-10-09T07:37:01.428Z,970.64
2016-10-09T07:38:01.390Z,970.68
2016-10-09T07:39:01.351Z,970.77
2016-10-09T07:40:01.315Z,970.66
2016-10-09T07:41:01.279Z,970.72
2016-10-09T07:42:01.242Z,970.69
2016-10-09T07:43:01.206Z,970.68
2016-10-09T07:44:01.168Z,970.71
2016-10-09T07:45:01.133Z,970.67
2016-10-09T07:46:01.095Z,970.71
2016-10-09T07:47:01.057Z,970.71
2016-10-09T07:48:01.030Z,970.77
2016-10-09T07:49:00.983Z,970.71
2016-10-09T07:50:00.947Z,970.77
2016-10-09T07:51:00.912Z,970.73
2016-10-09T07:52:00.875Z,970.73
2016-10-09T07:53:00.838Z,970.76
2016-10-09T07:54:00.801Z,970.76
2016-10-09T07:55:00.765Z,970.77
2016-10-09T07:56:00.730Z,970.73
2016-10-09T07:57:00.694Z,970.74
2016-10-09T07:58:00.657Z,970.81
2016-10-09T07:59:00.622Z,970.78
2016-10-09T08:00:00.587Z,970.77
2016-10-09T08:01:00.550Z,970.76
2016-10-09T08:02:00.514Z,970.78
2016-10-09T08:03:00.478Z,970.77
2016-10-09T08:04:00.443Z,970.76
2016-10-09T08:05:00.408Z,970.74
2016-10-09T08:06:00.371Z,970.75
2016-10-09T08:07:00.336Z,970.74
2016-10-09T08:08:00.301Z,970.71
2016-10-09T08:09:00.264Z,970.73
2016-10-09T08:10:00.229Z,970.74
2016-10-09T08:11:00.195Z,970.76
2016-10-09T08:12:00.158Z,970.72
2016-10-09T08:13:00.123Z,970.76
2016-10-09T08:14:00.088Z,970.79
2016-10-09T08:15:00.052Z,970.81
2016-10-09T08:16:00.017Z,970.82
2016-10-09T08:16:59.981Z,970.76
2016-10-09T08:17:59.947Z,970.77
2016-10-09T08:18:59.911Z,970.78
2016-10-09T08:19:59.876Z,970.84
2016-10-09T08:20:59.841Z,970.8
2016-10-09T08:21:59.806Z,970.82
2016-10-09T08:22:59.770Z,970.79
2016-10-09T08:23:59.736Z,970.84
2016-10-09T08:24:59.702Z,970.82
2016-10-09T08:25:59.667Z,970.77
2016-10-09T08:26:59.631Z,970.83
2016-10-09T08:27:59.598Z,970.84
2016-10-09T08:28:59.563Z,970.87
2016-10-09T08:29:59.528Z,970.93
2016-10-09T08:30:59.496Z,970.95
2016-10-09T08:31:59.460Z,970.93
2016-10-09T08:32:59.426Z,970.89
2016-10-09T08:33:59.391Z,970.92
2016-10-09T08:34:59.358Z,970.97
2016-10-09T08:35:59.324Z,970.93
2016-10-09T08:36:59.292Z,970.91
2016-10-09T08:37:59.257Z,970.93
2016-10-09T08:38:59.225Z,970.9
2016-10-09T08:39:59.191Z,970.9
2016-10-09T08:40:59.158Z,970.89
2016-10-09T08:41:59.124Z,970.98
2016-10-09T08:42:59.091Z,970.94
2016-10-09T08:43:59.057Z,970.96
2016-10-09T08:44:59.027Z,970.99
2016-10-09T08:45:58.991Z,970.98
2016-10-09T08:46:58.958Z,971.01
2016-10-09T08:47:58.925Z,970.91
2016-10-09T08:48:58.892Z,970.97
2016-10-09T08:49:58.860Z,970.93
2016-10-09T08:50:58.827Z,970.95
2016-10-09T08:51:58.794Z,970.94
2016-10-09T08:52:58.762Z,970.94
2016-10-09T08:53:58.732Z,970.97
2016-10-09T08:54:58.698Z,970.97
2016-10-09T08:55:58.665Z,970.91
2016-10-09T08:56:58.632Z,970.92
2016-10-09T08:57:58.602Z,970.91
2016-10-09T08:58:58.568Z,970.91
2016-10-09T08:59:58.537Z,970.88
2016-10-09T09:00:58.504Z,970.87
2016-10-09T09:01:58.472Z,970.93
2016-10-09T09:02:58.439Z,970.91
2016-10-09T09:03:58.407Z,970.9
2016-10-09T09:04:58.374Z,970.89
2016-10-09T09:05:58.343Z,970.89
2016-10-09T09:06:58.311Z,970.88
2016-10-09T09:07:58.279Z,970.91
2016-10-09T09:08:58.249Z,970.85
2016-10-09T09:09:58.216Z,970.87
2016-10-09T09:10:58.183Z,970.87
2016-10-09T09:11:58.151Z,970.85
2016-10-09T09:12:58.121Z,970.85
2016-10-09T09:13:58.088Z,970.9
2016-10-09T09:14:58.056Z,970.9
2016-10-09T09:15:58.025Z,970.89
2016-10-09T09:16:57.995Z,970.87
2016-10-09T09:17:57.960Z,970.86
2016-10-09T09:18:57.928Z,970.9
2016-10-09T09:19:57.897Z,970.91
2016-10-09T09:20:57.865Z,970.91
2016-10-09T09:21:57.831Z,970.88
2016-10-09T09:22:57.799Z,970.88
2016-10-09T09:23:57.769Z,970.88
2016-10-09T09:24:57.735Z,970.84
2016-10-09T09:25:57.703Z,970.84
2016-10-09T09:26:57.672Z,970.88
2016-10-09T09:27:57.639Z,970.9
2016-10-09T09:28:57.607Z,970.9
2016-10-09T09:29:57.583Z,970.9
2016-10-09T09:30:57.543Z,970.84
2016-10-09T09:31:57.513Z,970.88
2016-10-09T09:32:57.478Z,970.83
2016-10-09T09:33:57.446Z,970.82
2016-10-09T09:34:57.414Z,970.87
2016-10-09T09:35:57.380Z,970.8
2016-10-09T09:36:57.348Z,970.8
2016-10-09T09:37:57.318Z,970.86
2016-10-09T09:38:57.284Z,970.82
2016-10-09T09:39:57.250Z,970.84
2016-10-09T09:40:57.217Z,970.82
2016-10-09T09:41:57.186Z,970.8
2016-10-09T09:42:57.152Z,970.8
2016-10-09T09:43:57.117Z,970.79
2016-10-09T09:44:57.086Z,970.81
2016-10-09T09:45:57.056Z,970.77
2016-10-09T09:46:57.020Z,970.77
2016-10-09T09:47:56.985Z,970.76
2016-10-09T09:48:56.952Z,970.8
2016-10-09T09:49:56.919Z,970.78
2016-10-09T09:50:56.886Z,970.78
2016-10-09T09:51:56.852Z,970.8
2016-10-09T09:52:56.818Z,970.77
2016-10-09T09:53:56.786Z,970.77
2016-10-09T09:54:56.752Z,970.77
2016-10-09T09:55:56.720Z,970.78
2016-10-09T09:56:56.687Z,970.78
2016-10-09T09:57:56.653Z,970.74
2016-10-09T09:58:56.621Z,970.81
2016-10-09T09:59:56.587Z,970.74
2016-10-09T10:00:56.555Z,970.81
2016-10-09T10:01:56.520Z,970.8
2016-10-09T10:02:56.487Z,970.75
2016-10-09T10:03:56.454Z,970.79
2016-10-09T10:04:56.421Z,970.8
2016-10-09T10:05:56.387Z,970.82
2016-10-09T10:06:56.354Z,970.8
2016-10-09T10:07:56.359Z,970.87
2016-10-09T10:08:56.288Z,970.84
2016-10-09T10:09:56.253Z,970.77
2016-10-09T10:10:56.221Z,970.75
2016-10-09T10:11:56.188Z,970.74
2016-10-09T10:12:56.154Z,970.76
2016-10-09T10:13:56.121Z,970.73
2016-10-09T10:14:56.089Z,970.78
2016-10-09T10:15:56.055Z,970.76
2016-10-09T10:16:56.021Z,970.73
2016-10-09T10:17:55.988Z,970.79
2016-10-09T10:18:55.954Z,970.8
2016-10-09T10:19:55.921Z,970.76
2016-10-09T10:20:55.888Z,970.77
2016-10-09T10:21:55.853Z,970.77
2016-10-09T10:22:55.820Z,970.74
2016-10-09T10:23:55.786Z,970.75
2016-10-09T10:24:55.753Z,970.81
2016-10-09T10:25:55.720Z,970.78
2016-10-09T10:26:55.687Z,970.78
2016-10-09T10:27:55.653Z,970.78
2016-10-09T10:28:55.620Z,970.78
2016-10-09T10:29:55.587Z,970.85
2016-10-09T10:30:55.552Z,970.81
2016-10-09T10:31:55.523Z,970.8
2016-10-09T10:32:55.486Z,970.84
2016-10-09T10:33:55.453Z,970.79
2016-10-09T10:34:55.419Z,970.83
2016-10-09T10:35:55.386Z,970.77
2016-10-09T10:36:55.354Z,970.75
2016-10-09T10:37:55.318Z,970.81
2016-10-09T10:38:55.285Z,970.75
2016-10-09T10:39:55.255Z,970.78
2016-10-09T10:40:55.220Z,970.83
2016-10-09T10:41:55.185Z,970.78
2016-10-09T10:42:55.153Z,970.79
2016-10-09T10:43:55.119Z,970.79
2016-10-09T10:44:55.086Z,970.79
2016-10-09T10:45:55.052Z,970.81
2016-10-09T10:46:55.020Z,970.78
2016-10-09T10:47:54.985Z,970.73
2016-10-09T10:48:54.954Z,970.74
2016-10-09T10:49:54.920Z,970.71
2016-10-09T10:50:54.887Z,970.74
2016-10-09T10:51:54.854Z,970.71
2016-10-09T10:52:54.822Z,970.7
2016-10-09T10:53:54.788Z,970.72
2016-10-09T10:54:54.755Z,970.68
2016-10-09T10:55:54.723Z,970.72
2016-10-09T10:56:54.688Z,970.74
2016-10-09T10:57:54.657Z,970.7
2016-10-09T10:58:54.623Z,970.72
2016-10-09T10:59:54.590Z,970.7
2016-10-09T11:00:54.556Z,970.68
2016-10-09T11:01:54.524Z,970.65
2016-10-09T11:02:54.492Z,970.64
2016-10-09T11:03:54.458Z,970.7
2016-10-09T11:04:54.427Z,970.67
2016-10-09T11:05:54.393Z,970.68
2016-10-09T11:06:54.361Z,970.7
2016-10-09T11:07:54.327Z,970.66
2016-10-09T11:08:54.295Z,970.71
2016-10-09T11:09:54.264Z,970.68
2016-10-09T11:10:54.230Z,970.76
2016-10-09T11:11:54.196Z,970.69
2016-10-09T11:12:54.166Z,970.72
2016-10-09T11:13:54.133Z,970.71
2016-10-09T11:14:54.098Z,970.69
2016-10-09T11:15:54.066Z,970.74
2016-10-09T11:16:54.034Z,970.72
2016-10-09T11:17:54.001Z,970.67
2016-10-09T11:18:53.968Z,970.67
2016-10-09T11:19:53.936Z,970.6
2016-10-09T11:20:53.904Z,970.61
2016-10-09T11:21:53.872Z,970.62
2016-10-09T11:22:53.838Z,970.64
2016-10-09T11:23:53.806Z,970.61
2016-10-09T11:24:53.774Z,970.61
2016-10-09T11:25:53.742Z,970.52
2016-10-09T11:26:53.712Z,970.53
2016-10-09T11:27:53.679Z,970.52
2016-10-09T11:28:53.646Z,970.51
2016-10-09T11:29:53.614Z,970.54
2016-10-09T11:30:53.583Z,970.51
2016-10-09T11:31:53.553Z,970.55
2016-10-09T11:32:53.521Z,970.5
2016-10-09T11:33:53.488Z,970.51
2016-10-09T11:34:53.455Z,970.51
2016-10-09T11:35:53.425Z,970.5
2016-10-09T11:36:53.390Z,970.49
2016-10-09T11:37:53.360Z,970.5
2016-10-09T11:38:53.329Z,970.47
2016-10-09T11:39:53.296Z,970.48
2016-10-09T11:40:53.264Z,970.48
2016-10-09T11:41:53.232Z,970.46
2016-10-09T11:42:53.201Z,970.41
2016-10-09T11:43:53.168Z,970.44
2016-10-09T11:44:53.136Z,970.35
2016-10-09T11:45:53.106Z,970.38
2016-10-09T11:46:53.075Z,970.41
2016-10-09T11:47:53.043Z,970.37
2016-10-09T11:48:53.011Z,970.38
2016-10-09T11:49:52.980Z,970.38
2016-10-09T11:50:52.954Z,970.38
2016-10-09T11:51:52.916Z,970.32
2016-10-09T11:52:52.885Z,970.32
2016-10-09T11:53:52.852Z,970.29
2016-10-09T11:54:52.819Z,970.32
2016-10-09T11:55:52.789Z,970.33
2016-10-09T11:56:52.758Z,970.32
2016-10-09T11:57:52.727Z,970.33
2016-10-09T11:58:52.696Z,970.29
2016-10-09T11:59:52.664Z,970.27
2016-10-09T12:00:52.631Z,970.28
2016-10-09T12:01:52.601Z,970.3
2016-10-09T12:02:52.570Z,970.27
2016-10-09T12:03:52.538Z,970.29
2016-10-09T12:04:52.506Z,970.34
2016-10-09T12:05:52.473Z,970.32
2016-10-09T12:06:52.442Z,970.25
2016-10-09T12:07:52.411Z,970.29
2016-10-09T12:08:52.380Z,970.25
2016-10-09T12:09:52.349Z,970.26
2016-10-09T12:10:52.315Z,970.22
2016-10-09T12:11:52.284Z,970.22
2016-10-09T12:12:52.254Z,970.22
2016-10-09T12:13:52.219Z,970.23
2016-10-09T12:14:52.189Z,970.2
2016-10-09T12:15:52.155Z,970.24
2016-10-09T12:16:52.123Z,970.16
2016-10-09T12:17:52.092Z,970.21
2016-10-09T12:18:52.059Z,970.19
2016-10-09T12:19:52.037Z,970.17
2016-10-09T12:20:51.997Z,970.15
2016-10-09T12:21:51.964Z,970.14
2016-10-09T12:22:51.933Z,970.13
2016-10-09T12:23:51.901Z,970.11
2016-10-09T12:24:51.869Z,970.13
2016-10-09T12:25:51.836Z,970.13
2016-10-09T12:26:51.807Z,970.14
2016-10-09T12:27:51.773Z,970.13
2016-10-09T12:28:51.741Z,970.09
2016-10-09T12:29:51.709Z,970.07
2016-10-09T12:30:51.677Z,970.13